Pagina principale
METAR-TAF:

METAR-TAF

Aeroporti :

Cuneo, Italia

Aeroporto di Cuneo-Levaldigi

latitudine: 44-32-47N, longitudine: 007-37-20E, altezza: 386 m

Osservazione

Il bollettino è stato emesso 5 ore e 21 minuti fa, alle 19:50 UTC
Vento 3 kt da sud
Temperature 3°C
Umidità 81%
Pressione 1002 hPa
Visibilità 10 km o più
nessuna nube inferiore a 1500 m e nessun cumulonembo

METAR: LIMZ 161950Z 18003KT CAVOK 03/00 Q1002

Ora: 02:11 (01:11 UTC)

Previsione

Il bollettino è stato emesso 8 ore e 11 minuti fa, alle 17:00 UTC
Previsione valida dal 16 alle 18 UTC al 17 alle 18 UTC
Vento 5 kt da direzioni variabili
Visibilità: 8000 m
Evoluzione graduale
dal 16 alle 21 UTC al 16 alle 24 UTC
Vento 20 kt da nord-ovest con raffiche fino a 35 kt
Evoluzione graduale
dal 17 alle 15 UTC al 17 alle 18 UTC
Vento 8 kt da ovest/nord-ovest

TAF: LIMZ 161700Z 1618/1718 VRB05KT 8000 NSC BECMG 1621/1624 31020G35KT BECMG 1715/1718 29008KT

Osservazioni e previsioni meteorologiche di più di 4000 aeroporti (messaggi METAR e TAF).

Le stazioni disponibili sono rappresentate dai dischi gialli e rossi sulla carta.

Puntare il mouse per vedere il nome della stazione.

Clicca sopra per visualizzare le osservazioni e previsioni meteorologiche.

Per cambiare la mappa : fare clic sui pulsanti verdi con una croce nera per ingrandire, il pulsante verde con un trattino per diminuire, o sulla freccia verde per le mappe adiacenti.


METAR-TAF: